sensor_id;sensor_type;location;lat;lon;timestamp;pressure;altitude;pressure_sealevel;temperature;humidity
79174;BME280;68599;49.142;9.124;2023-11-22T00:02:17;100186.88;;;6.98;74.26
79174;BME280;68599;49.142;9.124;2023-11-22T00:04:44;100185.80;;;6.97;74.07
79174;BME280;68599;49.142;9.124;2023-11-22T00:07:11;100186.33;;;6.96;74.05
79174;BME280;68599;49.142;9.124;2023-11-22T00:09:38;100187.44;;;7.00;74.13
79174;BME280;68599;49.142;9.124;2023-11-22T00:12:06;100193.69;;;6.97;73.28
79174;BME280;68599;49.142;9.124;2023-11-22T00:14:32;100196.15;;;6.91;72.42
79174;BME280;68599;49.142;9.124;2023-11-22T00:17:01;100195.25;;;6.90;72.37
79174;BME280;68599;49.142;9.124;2023-11-22T00:19:28;100196.88;;;6.91;72.37
79174;BME280;68599;49.142;9.124;2023-11-22T00:21:57;100200.98;;;6.90;72.08
79174;BME280;68599;49.142;9.124;2023-11-22T00:24:23;100203.66;;;6.88;72.07
79174;BME280;68599;49.142;9.124;2023-11-22T00:26:50;100202.95;;;6.89;72.25
79174;BME280;68599;49.142;9.124;2023-11-22T00:29:16;100206.70;;;6.88;72.40
79174;BME280;68599;49.142;9.124;2023-11-22T00:31:43;100213.04;;;6.98;72.31
79174;BME280;68599;49.142;9.124;2023-11-22T00:34:11;100211.44;;;6.98;71.82
79174;BME280;68599;49.142;9.124;2023-11-22T00:36:38;100213.22;;;6.98;71.73
79174;BME280;68599;49.142;9.124;2023-11-22T00:39:04;100212.17;;;7.02;71.32
79174;BME280;68599;49.142;9.124;2023-11-22T00:41:31;100218.06;;;6.99;71.41
79174;BME280;68599;49.142;9.124;2023-11-22T00:43:58;100215.46;;;6.86;71.50
79174;BME280;68599;49.142;9.124;2023-11-22T00:46:25;100212.97;;;6.88;69.89
79174;BME280;68599;49.142;9.124;2023-11-22T00:48:52;100212.79;;;6.88;69.50
79174;BME280;68599;49.142;9.124;2023-11-22T00:51:18;100213.08;;;6.78;69.26
79174;BME280;68599;49.142;9.124;2023-11-22T00:53:46;100223.08;;;6.73;68.88
79174;BME280;68599;49.142;9.124;2023-11-22T00:56:13;100233.77;;;6.69;68.72
79174;BME280;68599;49.142;9.124;2023-11-22T00:58:40;100237.95;;;6.75;68.93
79174;BME280;68599;49.142;9.124;2023-11-22T01:01:07;100240.70;;;6.83;68.98
79174;BME280;68599;49.142;9.124;2023-11-22T01:03:34;100241.46;;;6.89;68.60
79174;BME280;68599;49.142;9.124;2023-11-22T01:06:02;100241.66;;;6.91;68.52
79174;BME280;68599;49.142;9.124;2023-11-22T01:08:29;100242.55;;;6.90;68.35
79174;BME280;68599;49.142;9.124;2023-11-22T01:10:56;100249.31;;;6.84;67.50
79174;BME280;68599;49.142;9.124;2023-11-22T01:13:24;100258.61;;;6.83;66.40
79174;BME280;68599;49.142;9.124;2023-11-22T01:15:51;100256.19;;;6.72;65.78
79174;BME280;68599;49.142;9.124;2023-11-22T01:18:17;100259.53;;;6.64;65.82
79174;BME280;68599;49.142;9.124;2023-11-22T01:20:44;100264.30;;;6.57;66.10
79174;BME280;68599;49.142;9.124;2023-11-22T01:23:11;100265.84;;;6.68;66.53
79174;BME280;68599;49.142;9.124;2023-11-22T01:25:38;100267.80;;;6.66;66.22
79174;BME280;68599;49.142;9.124;2023-11-22T01:28:04;100276.37;;;6.65;66.16
79174;BME280;68599;49.142;9.124;2023-11-22T01:30:33;100280.75;;;6.54;66.24
79174;BME280;68599;49.142;9.124;2023-11-22T01:32:59;100278.91;;;6.50;66.01
79174;BME280;68599;49.142;9.124;2023-11-22T01:35:26;100281.95;;;6.46;65.69
79174;BME280;68599;49.142;9.124;2023-11-22T01:37:53;100283.12;;;6.41;65.77
79174;BME280;68599;49.142;9.124;2023-11-22T01:40:20;100286.07;;;6.31;66.18
79174;BME280;68599;49.142;9.124;2023-11-22T01:42:46;100286.31;;;6.36;66.27
79174;BME280;68599;49.142;9.124;2023-11-22T01:45:13;100291.39;;;6.44;66.32
79174;BME280;68599;49.142;9.124;2023-11-22T01:47:40;100294.23;;;6.40;65.84
79174;BME280;68599;49.142;9.124;2023-11-22T01:50:08;100297.16;;;6.48;65.67
79174;BME280;68599;49.142;9.124;2023-11-22T01:52:36;100302.26;;;6.38;65.50
79174;BME280;68599;49.142;9.124;2023-11-22T01:55:03;100312.95;;;6.34;66.20
79174;BME280;68599;49.142;9.124;2023-11-22T01:57:33;100316.27;;;6.28;65.99
79174;BME280;68599;49.142;9.124;2023-11-22T02:00:03;100319.49;;;6.26;66.32
79174;BME280;68599;49.142;9.124;2023-11-22T02:02:31;100320.22;;;6.27;66.29
79174;BME280;68599;49.142;9.124;2023-11-22T02:04:58;100322.20;;;6.29;66.47
79174;BME280;68599;49.142;9.124;2023-11-22T02:07:27;100327.79;;;6.17;65.95
79174;BME280;68599;49.142;9.124;2023-11-22T02:09:54;100330.48;;;6.02;66.55
79174;BME280;68599;49.142;9.124;2023-11-22T02:12:20;100334.27;;;5.91;66.61
79174;BME280;68599;49.142;9.124;2023-11-22T02:14:47;100330.69;;;5.79;66.90
79174;BME280;68599;49.142;9.124;2023-11-22T02:17:14;100329.62;;;5.79;66.89
79174;BME280;68599;49.142;9.124;2023-11-22T02:19:40;100330.33;;;5.79;67.06
79174;BME280;68599;49.142;9.124;2023-11-22T02:22:07;100324.77;;;5.64;67.10
79174;BME280;68599;49.142;9.124;2023-11-22T02:24:33;100330.24;;;5.74;67.02
79174;BME280;68599;49.142;9.124;2023-11-22T02:27:00;100331.30;;;5.71;67.38
79174;BME280;68599;49.142;9.124;2023-11-22T02:29:27;100337.44;;;5.75;67.20
79174;BME280;68599;49.142;9.124;2023-11-22T02:31:54;100334.84;;;5.69;67.13
79174;BME280;68599;49.142;9.124;2023-11-22T02:34:21;100334.81;;;5.67;66.98
79174;BME280;68599;49.142;9.124;2023-11-22T02:36:48;100337.21;;;5.60;67.04
79174;BME280;68599;49.142;9.124;2023-11-22T02:39:35;100339.35;;;5.59;67.59
79174;BME280;68599;49.142;9.124;2023-11-22T02:42:07;100344.80;;;5.53;67.05
79174;BME280;68599;49.142;9.124;2023-11-22T02:44:35;100344.98;;;5.41;67.17
79174;BME280;68599;49.142;9.124;2023-11-22T02:47:02;100348.30;;;5.35;66.99
79174;BME280;68599;49.142;9.124;2023-11-22T02:49:28;100353.86;;;5.25;67.19
79174;BME280;68599;49.142;9.124;2023-11-22T02:51:56;100369.51;;;5.21;67.49
79174;BME280;68599;49.142;9.124;2023-11-22T02:54:22;100373.42;;;5.19;67.34
79174;BME280;68599;49.142;9.124;2023-11-22T02:56:49;100379.83;;;5.18;67.51
79174;BME280;68599;49.142;9.124;2023-11-22T02:59:15;100387.21;;;5.10;67.55
79174;BME280;68599;49.142;9.124;2023-11-22T03:01:42;100385.45;;;5.02;67.67
79174;BME280;68599;49.142;9.124;2023-11-22T03:04:09;100393.41;;;5.07;67.74
79174;BME280;68599;49.142;9.124;2023-11-22T03:06:36;100397.98;;;5.04;67.84
79174;BME280;68599;49.142;9.124;2023-11-22T03:09:02;100408.55;;;5.05;67.53
79174;BME280;68599;49.142;9.124;2023-11-22T03:11:31;100412.06;;;5.01;67.65
79174;BME280;68599;49.142;9.124;2023-11-22T03:13:58;100414.69;;;4.99;67.87
79174;BME280;68599;49.142;9.124;2023-11-22T03:16:25;100416.96;;;5.06;67.61
79174;BME280;68599;49.142;9.124;2023-11-22T03:18:52;100411.42;;;5.06;67.45
79174;BME280;68599;49.142;9.124;2023-11-22T03:21:20;100403.66;;;5.12;67.83
79174;BME280;68599;49.142;9.124;2023-11-22T03:23:47;100403.48;;;5.12;67.57
79174;BME280;68599;49.142;9.124;2023-11-22T03:26:13;100405.69;;;5.15;67.52
79174;BME280;68599;49.142;9.124;2023-11-22T03:28:40;100406.97;;;5.17;67.63
79174;BME280;68599;49.142;9.124;2023-11-22T03:31:07;100411.79;;;5.17;67.71
79174;BME280;68599;49.142;9.124;2023-11-22T03:33:35;100416.71;;;5.23;67.57
79174;BME280;68599;49.142;9.124;2023-11-22T03:36:01;100425.11;;;5.22;67.77
79174;BME280;68599;49.142;9.124;2023-11-22T03:38:28;100424.19;;;5.21;67.76
79174;BME280;68599;49.142;9.124;2023-11-22T03:40:55;100426.03;;;5.25;68.09
79174;BME280;68599;49.142;9.124;2023-11-22T03:43:21;100427.94;;;5.31;67.97
79174;BME280;68599;49.142;9.124;2023-11-22T03:45:48;100433.64;;;5.42;67.78
79174;BME280;68599;49.142;9.124;2023-11-22T03:48:15;100435.39;;;5.39;67.84
79174;BME280;68599;49.142;9.124;2023-11-22T03:50:42;100441.90;;;5.44;67.81
79174;BME280;68599;49.142;9.124;2023-11-22T03:53:08;100449.48;;;5.48;67.69
79174;BME280;68599;49.142;9.124;2023-11-22T03:55:35;100450.61;;;5.51;67.40
79174;BME280;68599;49.142;9.124;2023-11-22T03:58:01;100450.31;;;5.56;67.14
79174;BME280;68599;49.142;9.124;2023-11-22T04:00:28;100448.29;;;5.52;66.93
79174;BME280;68599;49.142;9.124;2023-11-22T04:02:54;100443.73;;;5.47;67.11
79174;BME280;68599;49.142;9.124;2023-11-22T04:05:23;100444.80;;;5.46;66.65
79174;BME280;68599;49.142;9.124;2023-11-22T04:07:49;100445.77;;;5.29;66.25
79174;BME280;68599;49.142;9.124;2023-11-22T04:10:18;100453.12;;;5.31;66.41
79174;BME280;68599;49.142;9.124;2023-11-22T04:12:45;100451.23;;;5.25;65.79
79174;BME280;68599;49.142;9.124;2023-11-22T04:15:12;100454.88;;;5.28;66.28
79174;BME280;68599;49.142;9.124;2023-11-22T04:17:41;100460.63;;;5.31;66.39
79174;BME280;68599;49.142;9.124;2023-11-22T04:20:09;100448.80;;;5.29;66.36
79174;BME280;68599;49.142;9.124;2023-11-22T04:22:37;100451.04;;;5.35;66.25
79174;BME280;68599;49.142;9.124;2023-11-22T04:25:04;100450.10;;;5.43;66.12
79174;BME280;68599;49.142;9.124;2023-11-22T04:27:31;100454.44;;;5.45;65.84
79174;BME280;68599;49.142;9.124;2023-11-22T04:29:58;100458.34;;;5.44;65.73
79174;BME280;68599;49.142;9.124;2023-11-22T04:32:24;100470.53;;;5.56;65.57
79174;BME280;68599;49.142;9.124;2023-11-22T04:34:51;100478.30;;;5.51;65.27
79174;BME280;68599;49.142;9.124;2023-11-22T04:37:18;100479.33;;;5.48;66.02
79174;BME280;68599;49.142;9.124;2023-11-22T04:39:44;100490.57;;;5.58;66.43
79174;BME280;68599;49.142;9.124;2023-11-22T04:42:11;100492.84;;;5.65;66.42
79174;BME280;68599;49.142;9.124;2023-11-22T04:44:38;100499.70;;;5.69;66.07
79174;BME280;68599;49.142;9.124;2023-11-22T04:47:04;100500.45;;;5.71;65.83
79174;BME280;68599;49.142;9.124;2023-11-22T04:49:33;100505.52;;;5.74;65.62
79174;BME280;68599;49.142;9.124;2023-11-22T04:51:59;100515.91;;;5.66;65.62
79174;BME280;68599;49.142;9.124;2023-11-22T04:54:26;100517.80;;;5.61;65.64
79174;BME280;68599;49.142;9.124;2023-11-22T04:56:52;100518.88;;;5.61;65.78
79174;BME280;68599;49.142;9.124;2023-11-22T04:59:19;100523.06;;;5.55;65.49
79174;BME280;68599;49.142;9.124;2023-11-22T05:01:45;100526.11;;;5.55;65.48
79174;BME280;68599;49.142;9.124;2023-11-22T05:04:12;100527.95;;;5.48;64.71
79174;BME280;68599;49.142;9.124;2023-11-22T05:06:39;100536.62;;;5.43;64.41
79174;BME280;68599;49.142;9.124;2023-11-22T05:09:05;100539.51;;;5.35;63.87
79174;BME280;68599;49.142;9.124;2023-11-22T05:11:32;100544.42;;;5.40;63.79
79174;BME280;68599;49.142;9.124;2023-11-22T05:13:58;100544.83;;;5.32;63.76
79174;BME280;68599;49.142;9.124;2023-11-22T05:16:25;100546.27;;;5.24;64.02
79174;BME280;68599;49.142;9.124;2023-11-22T05:18:52;100543.15;;;5.29;64.24
79174;BME280;68599;49.142;9.124;2023-11-22T05:21:18;100552.08;;;5.37;64.30
79174;BME280;68599;49.142;9.124;2023-11-22T05:23:45;100546.92;;;5.39;64.39
79174;BME280;68599;49.142;9.124;2023-11-22T05:26:12;100552.28;;;5.39;63.76
79174;BME280;68599;49.142;9.124;2023-11-22T05:28:38;100544.91;;;5.28;63.41
79174;BME280;68599;49.142;9.124;2023-11-22T05:31:05;100553.08;;;5.15;63.65
79174;BME280;68599;49.142;9.124;2023-11-22T05:33:32;100551.58;;;5.12;63.27
79174;BME280;68599;49.142;9.124;2023-11-22T05:35:59;100553.52;;;5.01;62.18
79174;BME280;68599;49.142;9.124;2023-11-22T05:38:25;100550.73;;;5.05;62.38
79174;BME280;68599;49.142;9.124;2023-11-22T05:40:53;100550.48;;;5.01;61.73
79174;BME280;68599;49.142;9.124;2023-11-22T05:43:20;100557.73;;;4.97;61.91
79174;BME280;68599;49.142;9.124;2023-11-22T05:45:55;100558.23;;;4.87;61.30
79174;BME280;68599;49.142;9.124;2023-11-22T05:48:22;100568.17;;;4.76;61.38
79174;BME280;68599;49.142;9.124;2023-11-22T05:50:49;100577.67;;;4.69;61.56
79174;BME280;68599;49.142;9.124;2023-11-22T05:53:16;100588.86;;;4.75;61.38
79174;BME280;68599;49.142;9.124;2023-11-22T05:55:49;100590.75;;;4.63;61.48
79174;BME280;68599;49.142;9.124;2023-11-22T05:58:17;100591.36;;;4.58;61.38
79174;BME280;68599;49.142;9.124;2023-11-22T06:00:45;100600.94;;;4.48;61.17
79174;BME280;68599;49.142;9.124;2023-11-22T06:03:12;100609.38;;;4.50;60.36
79174;BME280;68599;49.142;9.124;2023-11-22T06:05:40;100614.00;;;4.49;60.42
79174;BME280;68599;49.142;9.124;2023-11-22T06:08:06;100615.21;;;4.40;59.72
79174;BME280;68599;49.142;9.124;2023-11-22T06:10:35;100620.95;;;4.41;59.86
79174;BME280;68599;49.142;9.124;2023-11-22T06:13:02;100621.20;;;4.44;59.65
79174;BME280;68599;49.142;9.124;2023-11-22T06:15:28;100626.14;;;4.42;59.25
79174;BME280;68599;49.142;9.124;2023-11-22T06:17:58;100633.09;;;4.26;58.75
79174;BME280;68599;49.142;9.124;2023-11-22T06:20:24;100638.22;;;4.25;59.14
79174;BME280;68599;49.142;9.124;2023-11-22T06:22:53;100649.27;;;4.31;59.30
79174;BME280;68599;49.142;9.124;2023-11-22T06:25:20;100655.54;;;4.26;58.56
79174;BME280;68599;49.142;9.124;2023-11-22T06:27:47;100658.20;;;4.17;59.25
79174;BME280;68599;49.142;9.124;2023-11-22T06:30:13;100659.06;;;4.16;59.40
79174;BME280;68599;49.142;9.124;2023-11-22T06:32:41;100657.27;;;4.17;59.31
79174;BME280;68599;49.142;9.124;2023-11-22T06:35:11;100658.38;;;4.03;59.59
79174;BME280;68599;49.142;9.124;2023-11-22T06:37:41;100663.64;;;4.07;59.51
79174;BME280;68599;49.142;9.124;2023-11-22T06:40:09;100667.69;;;3.98;59.04
79174;BME280;68599;49.142;9.124;2023-11-22T06:42:35;100672.28;;;3.96;58.34
79174;BME280;68599;49.142;9.124;2023-11-22T06:45:04;100680.31;;;3.83;58.90
79174;BME280;68599;49.142;9.124;2023-11-22T06:47:33;100686.81;;;3.87;58.93
79174;BME280;68599;49.142;9.124;2023-11-22T06:50:00;100689.82;;;3.85;58.93
79174;BME280;68599;49.142;9.124;2023-11-22T06:52:27;100686.14;;;3.75;58.26
79174;BME280;68599;49.142;9.124;2023-11-22T06:54:54;100684.95;;;3.70;58.76
79174;BME280;68599;49.142;9.124;2023-11-22T06:57:21;100687.21;;;3.75;58.72
79174;BME280;68599;49.142;9.124;2023-11-22T06:59:57;100690.24;;;3.81;58.69
79174;BME280;68599;49.142;9.124;2023-11-22T07:02:24;100692.74;;;3.82;58.12
79174;BME280;68599;49.142;9.124;2023-11-22T07:04:52;100696.30;;;3.75;58.58
79174;BME280;68599;49.142;9.124;2023-11-22T07:07:19;100695.92;;;3.80;58.45
79174;BME280;68599;49.142;9.124;2023-11-22T07:09:48;100700.58;;;3.68;58.84
79174;BME280;68599;49.142;9.124;2023-11-22T07:12:15;100704.08;;;3.72;58.95
79174;BME280;68599;49.142;9.124;2023-11-22T07:14:43;100714.80;;;3.67;59.05
79174;BME280;68599;49.142;9.124;2023-11-22T07:17:10;100718.53;;;3.66;59.10
79174;BME280;68599;49.142;9.124;2023-11-22T07:19:37;100719.52;;;3.57;59.35
79174;BME280;68599;49.142;9.124;2023-11-22T07:22:04;100729.67;;;3.57;59.81
79174;BME280;68599;49.142;9.124;2023-11-22T07:24:43;100742.02;;;3.59;59.47
79174;BME280;68599;49.142;9.124;2023-11-22T07:27:11;100744.98;;;3.62;59.57
79174;BME280;68599;49.142;9.124;2023-11-22T07:29:42;100756.71;;;3.55;59.95
79174;BME280;68599;49.142;9.124;2023-11-22T07:32:09;100762.63;;;3.62;59.98
79174;BME280;68599;49.142;9.124;2023-11-22T07:34:38;100764.37;;;3.73;60.06
79174;BME280;68599;49.142;9.124;2023-11-22T07:37:08;100770.61;;;3.80;59.69
79174;BME280;68599;49.142;9.124;2023-11-22T07:39:35;100773.90;;;3.70;59.94
79174;BME280;68599;49.142;9.124;2023-11-22T07:42:03;100768.05;;;3.71;59.90
79174;BME280;68599;49.142;9.124;2023-11-22T07:44:29;100765.36;;;3.77;59.84
79174;BME280;68599;49.142;9.124;2023-11-22T07:46:59;100762.51;;;3.83;59.72
79174;BME280;68599;49.142;9.124;2023-11-22T07:49:26;100765.88;;;3.89;59.38
79174;BME280;68599;49.142;9.124;2023-11-22T07:51:53;100764.80;;;3.89;59.55
79174;BME280;68599;49.142;9.124;2023-11-22T07:54:20;100758.96;;;3.97;59.45
79174;BME280;68599;49.142;9.124;2023-11-22T07:56:49;100757.60;;;3.99;58.81
79174;BME280;68599;49.142;9.124;2023-11-22T07:59:16;100768.08;;;3.98;58.96
79174;BME280;68599;49.142;9.124;2023-11-22T08:01:43;100772.52;;;3.91;58.55
79174;BME280;68599;49.142;9.124;2023-11-22T08:04:10;100776.92;;;3.95;58.26
79174;BME280;68599;49.142;9.124;2023-11-22T08:06:37;100775.67;;;3.95;58.40
79174;BME280;68599;49.142;9.124;2023-11-22T08:09:05;100773.90;;;4.02;57.65
79174;BME280;68599;49.142;9.124;2023-11-22T08:11:31;100767.08;;;4.00;57.77
79174;BME280;68599;49.142;9.124;2023-11-22T08:13:58;100764.12;;;4.03;57.68
79174;BME280;68599;49.142;9.124;2023-11-22T08:16:26;100757.41;;;4.12;57.22
79174;BME280;68599;49.142;9.124;2023-11-22T08:18:54;100752.56;;;4.11;57.66
79174;BME280;68599;49.142;9.124;2023-11-22T08:21:20;100758.07;;;4.24;57.06
79174;BME280;68599;49.142;9.124;2023-11-22T08:23:47;100762.32;;;4.29;57.12
79174;BME280;68599;49.142;9.124;2023-11-22T08:26:14;100762.02;;;4.39;57.20
79174;BME280;68599;49.142;9.124;2023-11-22T08:28:41;100761.80;;;4.44;56.56
79174;BME280;68599;49.142;9.124;2023-11-22T08:31:08;100767.75;;;4.46;56.29
79174;BME280;68599;49.142;9.124;2023-11-22T08:33:39;100779.56;;;4.34;56.46
79174;BME280;68599;49.142;9.124;2023-11-22T08:36:07;100773.82;;;4.46;56.92
79174;BME280;68599;49.142;9.124;2023-11-22T08:38:35;100774.20;;;4.54;56.97
79174;BME280;68599;49.142;9.124;2023-11-22T08:41:05;100779.11;;;4.58;56.43
79174;BME280;68599;49.142;9.124;2023-11-22T08:43:33;100774.62;;;4.64;56.35
79174;BME280;68599;49.142;9.124;2023-11-22T08:46:01;100784.73;;;4.54;55.74
79174;BME280;68599;49.142;9.124;2023-11-22T08:48:40;100790.17;;;4.51;55.99
79174;BME280;68599;49.142;9.124;2023-11-22T08:51:09;100780.29;;;4.62;56.15
79174;BME280;68599;49.142;9.124;2023-11-22T08:53:37;100779.73;;;4.76;56.08
79174;BME280;68599;49.142;9.124;2023-11-22T08:56:04;100774.81;;;4.93;55.73
79174;BME280;68599;49.142;9.124;2023-11-22T08:58:32;100772.67;;;4.93;55.44
79174;BME280;68599;49.142;9.124;2023-11-22T09:01:00;100765.63;;;5.06;55.32
79174;BME280;68599;49.142;9.124;2023-11-22T09:03:27;100757.33;;;5.18;54.67
79174;BME280;68599;49.142;9.124;2023-11-22T09:05:55;100757.38;;;5.36;54.32
79174;BME280;68599;49.142;9.124;2023-11-22T09:08:22;100760.00;;;5.58;54.54
79174;BME280;68599;49.142;9.124;2023-11-22T09:10:53;100757.92;;;5.96;54.40
79174;BME280;68599;49.142;9.124;2023-11-22T09:13:21;100752.68;;;6.31;52.86
79174;BME280;68599;49.142;9.124;2023-11-22T09:15:49;100750.20;;;6.32;51.88
79174;BME280;68599;49.142;9.124;2023-11-22T09:18:16;100751.08;;;6.62;50.62
79174;BME280;68599;49.142;9.124;2023-11-22T09:20:43;100749.42;;;8.41;48.62
79174;BME280;68599;49.142;9.124;2023-11-22T09:23:11;100751.05;;;9.63;46.57
79174;BME280;68599;49.142;9.124;2023-11-22T09:25:38;100750.13;;;9.57;45.92
79174;BME280;68599;49.142;9.124;2023-11-22T09:28:05;100748.42;;;9.12;44.95
79174;BME280;68599;49.142;9.124;2023-11-22T09:30:34;100750.15;;;8.76;46.20
79174;BME280;68599;49.142;9.124;2023-11-22T09:33:06;100762.96;;;8.45;45.99
79174;BME280;68599;49.142;9.124;2023-11-22T09:35:34;100770.46;;;7.90;47.10
79174;BME280;68599;49.142;9.124;2023-11-22T09:38:04;100772.27;;;7.63;47.73
79174;BME280;68599;49.142;9.124;2023-11-22T09:40:31;100777.29;;;7.36;47.74
79174;BME280;68599;49.142;9.124;2023-11-22T09:43:00;100783.29;;;7.05;48.30
79174;BME280;68599;49.142;9.124;2023-11-22T09:45:30;100780.66;;;7.09;48.85
79174;BME280;68599;49.142;9.124;2023-11-22T09:47:59;100791.37;;;6.94;49.30
79174;BME280;68599;49.142;9.124;2023-11-22T09:53:45;100796.14;;;7.13;48.74
79174;BME280;68599;49.142;9.124;2023-11-22T09:56:15;100799.52;;;7.24;49.41
79174;BME280;68599;49.142;9.124;2023-11-22T09:58:43;100800.39;;;7.22;48.97
79174;BME280;68599;49.142;9.124;2023-11-22T10:01:11;100807.25;;;7.13;48.96
79174;BME280;68599;49.142;9.124;2023-11-22T10:03:38;100808.89;;;7.39;49.20
79174;BME280;68599;49.142;9.124;2023-11-22T10:06:05;100812.95;;;7.47;48.37
79174;BME280;68599;49.142;9.124;2023-11-22T10:08:33;100815.64;;;7.01;49.05
79174;BME280;68599;49.142;9.124;2023-11-22T10:10:59;100816.38;;;6.90;49.74
79174;BME280;68599;49.142;9.124;2023-11-22T10:13:26;100813.02;;;6.82;49.64
79174;BME280;68599;49.142;9.124;2023-11-22T10:15:53;100817.21;;;6.65;49.78
79174;BME280;68599;49.142;9.124;2023-11-22T10:18:20;100816.33;;;6.56;50.73
79174;BME280;68599;49.142;9.124;2023-11-22T10:20:49;100814.54;;;6.65;50.20
79174;BME280;68599;49.142;9.124;2023-11-22T10:23:17;100819.26;;;6.60;50.70
79174;BME280;68599;49.142;9.124;2023-11-22T10:25:47;100822.48;;;6.59;50.25
79174;BME280;68599;49.142;9.124;2023-11-22T10:28:20;100819.96;;;6.59;50.50
79174;BME280;68599;49.142;9.124;2023-11-22T10:30:49;100814.07;;;6.70;50.65
79174;BME280;68599;49.142;9.124;2023-11-22T10:33:18;100808.63;;;6.56;50.65
79174;BME280;68599;49.142;9.124;2023-11-22T10:35:47;100800.04;;;6.66;50.25
79174;BME280;68599;49.142;9.124;2023-11-22T10:38:21;100804.50;;;6.65;50.54
79174;BME280;68599;49.142;9.124;2023-11-22T10:40:48;100813.99;;;6.46;50.28
79174;BME280;68599;49.142;9.124;2023-11-22T10:43:16;100820.61;;;6.35;50.54
79174;BME280;68599;49.142;9.124;2023-11-22T10:45:44;100826.16;;;6.35;51.04
79174;BME280;68599;49.142;9.124;2023-11-22T10:48:20;100834.89;;;6.24;51.21
79174;BME280;68599;49.142;9.124;2023-11-22T10:50:47;100836.77;;;6.19;51.55
79174;BME280;68599;49.142;9.124;2023-11-22T10:53:16;100844.76;;;6.25;51.63
79174;BME280;68599;49.142;9.124;2023-11-22T10:55:46;100841.41;;;6.11;51.10
79174;BME280;68599;49.142;9.124;2023-11-22T10:58:15;100845.11;;;5.90;51.80
79174;BME280;68599;49.142;9.124;2023-11-22T11:00:45;100847.73;;;5.88;52.00
79174;BME280;68599;49.142;9.124;2023-11-22T11:03:20;100847.39;;;5.81;52.27
79174;BME280;68599;49.142;9.124;2023-11-22T11:06:02;100849.68;;;5.79;52.43
79174;BME280;68599;49.142;9.124;2023-11-22T11:08:35;100856.88;;;5.65;52.79
79174;BME280;68599;49.142;9.124;2023-11-22T11:11:05;100859.04;;;5.74;52.98
79174;BME280;68599;49.142;9.124;2023-11-22T11:13:32;100858.64;;;5.80;52.43
79174;BME280;68599;49.142;9.124;2023-11-22T11:15:59;100858.84;;;5.81;52.79
79174;BME280;68599;49.142;9.124;2023-11-22T11:18:27;100865.20;;;5.77;53.09
79174;BME280;68599;49.142;9.124;2023-11-22T11:20:57;100866.54;;;5.88;52.53
79174;BME280;68599;49.142;9.124;2023-11-22T11:23:27;100861.23;;;5.91;52.43
79174;BME280;68599;49.142;9.124;2023-11-22T11:25:56;100859.38;;;5.89;52.62
79174;BME280;68599;49.142;9.124;2023-11-22T11:28:24;100858.06;;;6.02;52.18
79174;BME280;68599;49.142;9.124;2023-11-22T11:30:54;100860.61;;;6.04;52.41
79174;BME280;68599;49.142;9.124;2023-11-22T11:33:32;100860.61;;;6.12;52.04
79174;BME280;68599;49.142;9.124;2023-11-22T11:36:02;100866.02;;;6.14;52.17
79174;BME280;68599;49.142;9.124;2023-11-22T11:38:36;100867.64;;;6.24;51.50
79174;BME280;68599;49.142;9.124;2023-11-22T11:41:09;100878.01;;;6.14;51.53
79174;BME280;68599;49.142;9.124;2023-11-22T11:43:42;100872.89;;;6.09;52.06
79174;BME280;68599;49.142;9.124;2023-11-22T11:46:09;100867.61;;;6.22;51.92
79174;BME280;68599;49.142;9.124;2023-11-22T11:48:37;100877.52;;;6.17;51.89
79174;BME280;68599;49.142;9.124;2023-11-22T11:51:03;100873.77;;;6.27;51.99
79174;BME280;68599;49.142;9.124;2023-11-22T11:53:33;100868.89;;;6.15;52.22
79174;BME280;68599;49.142;9.124;2023-11-22T11:56:01;100877.30;;;6.15;52.11
79174;BME280;68599;49.142;9.124;2023-11-22T11:58:28;100885.26;;;6.28;52.19
79174;BME280;68599;49.142;9.124;2023-11-22T12:00:55;100891.62;;;6.32;51.79
79174;BME280;68599;49.142;9.124;2023-11-22T12:03:23;100893.38;;;6.15;51.84
79174;BME280;68599;49.142;9.124;2023-11-22T12:05:50;100896.98;;;6.15;52.22
79174;BME280;68599;49.142;9.124;2023-11-22T12:08:17;100889.48;;;6.24;51.95
79174;BME280;68599;49.142;9.124;2023-11-22T12:10:45;100891.66;;;6.17;52.71
79174;BME280;68599;49.142;9.124;2023-11-22T12:13:22;100900.29;;;6.19;52.32
79174;BME280;68599;49.142;9.124;2023-11-22T12:15:50;100904.06;;;6.19;52.38
79174;BME280;68599;49.142;9.124;2023-11-22T12:18:17;100912.30;;;6.11;52.64
79174;BME280;68599;49.142;9.124;2023-11-22T12:20:56;100915.54;;;6.29;52.40
79174;BME280;68599;49.142;9.124;2023-11-22T12:23:25;100919.72;;;6.24;51.88
79174;BME280;68599;49.142;9.124;2023-11-22T12:25:57;100919.75;;;6.25;52.25
79174;BME280;68599;49.142;9.124;2023-11-22T12:28:26;100925.20;;;6.20;52.63
79174;BME280;68599;49.142;9.124;2023-11-22T12:30:53;100914.81;;;6.29;52.55
79174;BME280;68599;49.142;9.124;2023-11-22T12:33:20;100906.92;;;6.20;52.61
79174;BME280;68599;49.142;9.124;2023-11-22T12:35:47;100902.41;;;6.01;52.87
79174;BME280;68599;49.142;9.124;2023-11-22T12:38:15;100901.57;;;6.11;52.94
79174;BME280;68599;49.142;9.124;2023-11-22T12:40:44;100902.85;;;6.12;53.18
79174;BME280;68599;49.142;9.124;2023-11-22T12:43:13;100903.77;;;6.06;52.99
79174;BME280;68599;49.142;9.124;2023-11-22T12:45:43;100909.70;;;6.08;53.08
79174;BME280;68599;49.142;9.124;2023-11-22T12:48:24;100906.63;;;6.14;52.78
79174;BME280;68599;49.142;9.124;2023-11-22T12:50:52;100897.54;;;5.99;52.93
79174;BME280;68599;49.142;9.124;2023-11-22T12:53:21;100889.96;;;5.96;53.04
79174;BME280;68599;49.142;9.124;2023-11-22T12:55:49;100879.41;;;5.89;53.40
79174;BME280;68599;49.142;9.124;2023-11-22T12:58:17;100874.44;;;5.98;53.24
79174;BME280;68599;49.142;9.124;2023-11-22T13:00:49;100882.03;;;6.02;53.34
79174;BME280;68599;49.142;9.124;2023-11-22T13:03:16;100882.88;;;6.00;53.36
79174;BME280;68599;49.142;9.124;2023-11-22T13:05:44;100885.35;;;5.98;53.11
79174;BME280;68599;49.142;9.124;2023-11-22T13:08:12;100884.81;;;5.90;53.00